Darstellungsparameter: Aktuell verwendete Einstellungen:
Skalierung der Graphiken ... ?
xyx+y,   Skalierungsfaktor:      Skalierung: Modus: x, Faktor: 1
Darstellungszeitraum ... ?
Vom - - bis: - -   Zeitraum: 31.01.2022 - 31.01.2022
Min/Max/Avg-Anzeige ... ?
Zeige MMA aktuell
Zeige MMA Monat
Zeige MMA alles
Zeige --A aktuell
Zeige --A Monat
Zeige --A alles
Keine MMA-Anzeige
MMA:
Average (ber die Originaldaten)
MMA-Basis: 31.01.2022 - 31.01.2022
Quicknavigation für Darstellung... ?
Tage:      1T, 2T, 3T, 5T -1T -2T -3T -5T +1T +2T +3T +5T
Wochen: 1W, 2W, 3W -1W -2W -3W +1W +2W +3W
Monate: 1M, 3M, 6M -1M -3M -6M +1M +3M +6M
Jahre:    1J, 3J, 5J, 10J -1J -3J -5J -10J +1J +3J +5J +10J
Nutze für die Darstellung ... ?
Originaldaten oder Mittelwerte auf ...
Stundenbasis Tagesbasis Wochenbasis
Monatsbasis Jahresbasis      Datenbasis: Original-Daten
Darstellen als:
Statistik (Auto) Statistik J:M      Darstellung:
Zur Graphik,    zurück zur Übersicht aller Sensoren.
 
Tabellarische Datenbersicht: ?
 
Sensor: Nr:Datum:Temp:Abs-Feuchte:Windchill:Wind:
Aussen-T/F 1 31-01-2022 00:00:00 1.2 C 4.74 g/m*3 1.2 C 0 km/h
2 31-01-2022 00:05:00 1.2 C 4.74 g/m*3 1.2 C 3.2 km/h
3 31-01-2022 00:10:00 1.2 C 4.74 g/m*3 1.2 C 0 km/h
4 31-01-2022 00:15:00 1.2 C 4.74 g/m*3 1.2 C 0 km/h
5 31-01-2022 00:20:00 1.3 C 4.77 g/m*3 1.3 C 3.2 km/h
6 31-01-2022 00:25:00 1.3 C 4.77 g/m*3 1.3 C 1.6 km/h
7 31-01-2022 00:30:00 1.3 C 4.77 g/m*3 1.3 C 3.2 km/h
8 31-01-2022 00:35:00 1.3 C 4.77 g/m*3 1.3 C 1.6 km/h
9 31-01-2022 00:40:00 1.4 C 4.8 g/m*3 1.4 C 0 km/h
10 31-01-2022 00:45:00 1.4 C 4.8 g/m*3 1.4 C 0 km/h
11 31-01-2022 00:50:00 1.4 C 4.8 g/m*3 1.4 C 0 km/h
12 31-01-2022 00:55:00 1.4 C 4.8 g/m*3 1.4 C 0 km/h
13 31-01-2022 01:00:00 1.4 C 4.8 g/m*3 1.4 C 0 km/h
14 31-01-2022 01:05:00 1.4 C 4.8 g/m*3 1.4 C 0 km/h
15 31-01-2022 01:10:00 1.4 C 4.8 g/m*3 1.4 C 0 km/h
16 31-01-2022 01:15:00 1.5 C 4.83 g/m*3 1.5 C 0 km/h
17 31-01-2022 01:20:00 1.4 C 4.8 g/m*3 1.4 C 0 km/h
18 31-01-2022 01:25:00 1.4 C 4.8 g/m*3 1.4 C 1.6 km/h
19 31-01-2022 01:30:00 1.4 C 4.8 g/m*3 1.4 C 1.6 km/h
20 31-01-2022 01:35:00 1.4 C 4.8 g/m*3 1.4 C 0 km/h
21 31-01-2022 01:40:00 1.5 C 4.83 g/m*3 1.5 C 1.6 km/h
22 31-01-2022 01:45:00 1.5 C 4.83 g/m*3 1.5 C 0 km/h
23 31-01-2022 01:50:00 1.5 C 4.83 g/m*3 1.5 C 0 km/h
24 31-01-2022 01:55:00 1.4 C 4.8 g/m*3 1.4 C 0 km/h
25 31-01-2022 02:00:00 1.4 C 4.8 g/m*3 1.4 C 3.2 km/h
Sensor: Nr:Datum:Temp:Abs-Feuchte:Windchill:Wind:
Aussen-T/F 26 31-01-2022 02:05:00 1.4 C 4.8 g/m*3 1.4 C 4.8 km/h
27 31-01-2022 02:10:00 1.4 C 4.85 g/m*3 1.4 C 1.6 km/h
28 31-01-2022 02:15:00 1.5 C 4.89 g/m*3 1.5 C 4.8 km/h
29 31-01-2022 02:20:00 1.6 C 4.92 g/m*3 1.6 C 1.6 km/h
30 31-01-2022 02:25:00 1.7 C 4.95 g/m*3 1.7 C 3.2 km/h
31 31-01-2022 02:30:00 1.8 C 4.99 g/m*3 -0.1 C 6.4 km/h
32 31-01-2022 02:35:00 2.1 C 5.09 g/m*3 -0.73 C 9.7 km/h
33 31-01-2022 02:40:00 2.3 C 5.16 g/m*3 2.3 C 1.6 km/h
34 31-01-2022 02:45:00 2.4 C 5.14 g/m*3 2.4 C 1.6 km/h
35 31-01-2022 02:50:00 2.6 C 5.21 g/m*3 2.6 C 0 km/h
36 31-01-2022 02:55:00 2.8 C 5.22 g/m*3 2.8 C 0 km/h
37 31-01-2022 03:00:00 2.8 C 5.22 g/m*3 2.8 C 0 km/h
38 31-01-2022 03:05:00 2.9 C 5.26 g/m*3 2.9 C 0 km/h
39 31-01-2022 03:10:00 3 C 5.23 g/m*3 0.76 C 8.1 km/h
40 31-01-2022 03:15:00 3.1 C 5.27 g/m*3 3.1 C 4.8 km/h
41 31-01-2022 03:20:00 3.2 C 5.3 g/m*3 3.2 C 4.8 km/h
42 31-01-2022 03:25:00 3.2 C 5.24 g/m*3 3.2 C 1.6 km/h
43 31-01-2022 03:30:00 3.3 C 5.28 g/m*3 3.3 C 1.6 km/h
44 31-01-2022 03:35:00 3.3 C 5.28 g/m*3 3.3 C 4.8 km/h
45 31-01-2022 03:40:00 3.4 C 5.31 g/m*3 3.4 C 4.8 km/h
46 31-01-2022 03:45:00 3.5 C 5.29 g/m*3 3.5 C 4.8 km/h
47 31-01-2022 03:50:00 3.6 C 5.32 g/m*3 1.46 C 8.1 km/h
48 31-01-2022 03:55:00 3.7 C 5.3 g/m*3 1.18 C 9.7 km/h
49 31-01-2022 04:00:00 3.9 C 5.37 g/m*3 1.41 C 9.7 km/h
50 31-01-2022 04:05:00 4.1 C 5.38 g/m*3 1 C 12.9 km/h
Sensor: Nr:Datum:Temp:Abs-Feuchte:Windchill:Wind:
Aussen-T/F 51 31-01-2022 04:10:00 4.2 C 5.35 g/m*3 0.59 C 16.1 km/h
52 31-01-2022 04:15:00 4.3 C 5.38 g/m*3 1.24 C 12.9 km/h
53 31-01-2022 04:20:00 4.4 C 5.42 g/m*3 1.09 C 14.5 km/h
54 31-01-2022 04:25:00 4.5 C 5.46 g/m*3 0.74 C 17.7 km/h
55 31-01-2022 04:30:00 4.6 C 5.49 g/m*3 0.86 C 17.7 km/h
56 31-01-2022 04:35:00 4.6 C 5.49 g/m*3 0.27 C 22.5 km/h
57 31-01-2022 04:40:00 4.7 C 5.46 g/m*3 -0.39 C 30.6 km/h
58 31-01-2022 04:45:00 4.7 C 5.46 g/m*3 0.58 C 20.9 km/h
59 31-01-2022 04:50:00 4.8 C 5.57 g/m*3 0.02 C 27.4 km/h
60 31-01-2022 04:55:00 4.8 C 5.57 g/m*3 0.35 C 24.1 km/h
61 31-01-2022 05:00:00 4.8 C 5.57 g/m*3 0.19 C 25.7 km/h
62 31-01-2022 05:05:00 4.7 C 5.66 g/m*3 0.4 C 22.5 km/h
63 31-01-2022 05:10:00 4.5 C 5.65 g/m*3 -0.51 C 29 km/h
64 31-01-2022 05:15:00 4.3 C 5.71 g/m*3 -0.29 C 24.1 km/h
65 31-01-2022 05:20:00 4.2 C 5.73 g/m*3 -0.42 C 24.1 km/h
66 31-01-2022 05:25:00 4 C 5.66 g/m*3 -0.5 C 22.5 km/h
67 31-01-2022 05:30:00 4 C 5.72 g/m*3 -0.11 C 19.3 km/h
68 31-01-2022 05:35:00 3.9 C 5.68 g/m*3 -0.62 C 22.5 km/h
69 31-01-2022 05:40:00 3.8 C 5.71 g/m*3 -0.75 C 22.5 km/h
70 31-01-2022 05:45:00 3.8 C 5.71 g/m*3 -0.56 C 20.9 km/h
71 31-01-2022 05:50:00 3.8 C 5.77 g/m*3 -0.14 C 17.7 km/h
72 31-01-2022 05:55:00 3.7 C 5.73 g/m*3 -0.69 C 20.9 km/h
73 31-01-2022 06:00:00 3.7 C 5.73 g/m*3 0.23 C 14.5 km/h
74 31-01-2022 06:05:00 3.7 C 5.73 g/m*3 -0.88 C 22.5 km/h
75 31-01-2022 06:10:00 3.6 C 5.69 g/m*3 -0.81 C 20.9 km/h
Sensor: Nr:Datum:Temp:Abs-Feuchte:Windchill:Wind:
Aussen-T/F 76 31-01-2022 06:15:00 3.6 C 5.69 g/m*3 -0.39 C 17.7 km/h
77 31-01-2022 06:20:00 3.6 C 5.69 g/m*3 -0.61 C 19.3 km/h
78 31-01-2022 06:25:00 3.6 C 5.76 g/m*3 -1.19 C 24.1 km/h
79 31-01-2022 06:30:00 3.5 C 5.72 g/m*3 -0.28 C 16.1 km/h
80 31-01-2022 06:35:00 3.5 C 5.72 g/m*3 -0.73 C 19.3 km/h
81 31-01-2022 06:40:00 3.5 C 5.72 g/m*3 -0.73 C 19.3 km/h
82 31-01-2022 06:45:00 3.6 C 5.76 g/m*3 -0.39 C 17.7 km/h
83 31-01-2022 06:50:00 3.5 C 5.72 g/m*3 -0.51 C 17.7 km/h
84 31-01-2022 06:55:00 3.5 C 5.72 g/m*3 -0.51 C 17.7 km/h
85 31-01-2022 07:00:00 3.5 C 5.72 g/m*3 -0.28 C 16.1 km/h
86 31-01-2022 07:05:00 3.6 C 5.76 g/m*3 -0.61 C 19.3 km/h
87 31-01-2022 07:10:00 3.6 C 5.76 g/m*3 0.11 C 14.5 km/h
88 31-01-2022 07:15:00 3.6 C 5.76 g/m*3 -0.15 C 16.1 km/h
89 31-01-2022 07:20:00 3.6 C 5.76 g/m*3 -0.15 C 16.1 km/h
90 31-01-2022 07:25:00 3.6 C 5.76 g/m*3 -0.15 C 16.1 km/h
91 31-01-2022 07:30:00 3.6 C 5.76 g/m*3 -0.61 C 19.3 km/h
92 31-01-2022 07:35:00 3.7 C 5.8 g/m*3 -0.69 C 20.9 km/h
93 31-01-2022 07:40:00 3.6 C 5.76 g/m*3 0.11 C 14.5 km/h
94 31-01-2022 07:45:00 3.6 C 5.76 g/m*3 0.39 C 12.9 km/h
95 31-01-2022 07:50:00 3.7 C 5.8 g/m*3 -0.69 C 20.9 km/h
96 31-01-2022 07:55:00 3.7 C 5.8 g/m*3 0.82 C 11.3 km/h
97 31-01-2022 08:00:00 3.7 C 5.8 g/m*3 -0.03 C 16.1 km/h
98 31-01-2022 08:05:00 3.8 C 5.83 g/m*3 -0.14 C 17.7 km/h
99 31-01-2022 08:10:00 3.9 C 5.87 g/m*3 -0.01 C 17.7 km/h
100 31-01-2022 08:15:00 3.9 C 5.87 g/m*3 1.06 C 11.3 km/h
Sensor: Nr:Datum:Temp:Abs-Feuchte:Windchill:Wind:
Aussen-T/F 101 31-01-2022 08:20:00 4 C 5.91 g/m*3 1.18 C 11.3 km/h
102 31-01-2022 08:25:00 4 C 5.91 g/m*3 0.88 C 12.9 km/h
103 31-01-2022 08:30:00 4 C 5.91 g/m*3 1.18 C 11.3 km/h
104 31-01-2022 08:35:00 4 C 5.91 g/m*3 1.18 C 11.3 km/h
105 31-01-2022 08:40:00 4 C 5.91 g/m*3 0.88 C 12.9 km/h
106 31-01-2022 08:45:00 4 C 5.91 g/m*3 1.18 C 11.3 km/h
107 31-01-2022 08:50:00 4.1 C 5.95 g/m*3 1 C 12.9 km/h
108 31-01-2022 08:55:00 4.1 C 5.95 g/m*3 1.65 C 9.7 km/h
109 31-01-2022 09:00:00 4.1 C 5.95 g/m*3 1.65 C 9.7 km/h
110 31-01-2022 09:05:00 4.2 C 5.99 g/m*3 0.84 C 14.5 km/h
111 31-01-2022 09:10:00 4.3 C 6.03 g/m*3 0.07 C 20.9 km/h
112 31-01-2022 09:15:00 4.4 C 6.01 g/m*3 -0.33 C 25.7 km/h
113 31-01-2022 09:20:00 4.6 C 6.09 g/m*3 0.1 C 24.1 km/h
114 31-01-2022 09:25:00 4.6 C 6.02 g/m*3 1.09 C 16.1 km/h
115 31-01-2022 09:30:00 4.6 C 6.09 g/m*3 1.34 C 14.5 km/h
116 31-01-2022 09:35:00 4.6 C 6.09 g/m*3 0.27 C 22.5 km/h
117 31-01-2022 09:40:00 4.6 C 6.09 g/m*3 0.86 C 17.7 km/h
118 31-01-2022 09:45:00 4.6 C 6.09 g/m*3 0.86 C 17.7 km/h
119 31-01-2022 09:50:00 4.6 C 6.09 g/m*3 1.09 C 16.1 km/h
120 31-01-2022 09:55:00 4.6 C 6.09 g/m*3 1.34 C 14.5 km/h
121 31-01-2022 10:00:00 4.6 C 6.09 g/m*3 0.86 C 17.7 km/h
122 31-01-2022 10:05:00 4.6 C 6.09 g/m*3 1.61 C 12.9 km/h
123 31-01-2022 10:10:00 4.6 C 6.09 g/m*3 1.09 C 16.1 km/h
124 31-01-2022 10:15:00 4.6 C 6.09 g/m*3 0.86 C 17.7 km/h
125 31-01-2022 10:20:00 4.6 C 6.09 g/m*3 0.86 C 17.7 km/h
Sensor: Nr:Datum:Temp:Abs-Feuchte:Windchill:Wind:
Aussen-T/F 126 31-01-2022 10:25:00 4.6 C 6.09 g/m*3 1.61 C 12.9 km/h
127 31-01-2022 10:30:00 4.7 C 6.13 g/m*3 0.99 C 17.7 km/h
128 31-01-2022 10:35:00 4.7 C 6.13 g/m*3 1.21 C 16.1 km/h
129 31-01-2022 10:40:00 4.8 C 6.1 g/m*3 1.34 C 16.1 km/h
130 31-01-2022 10:45:00 4.8 C 6.1 g/m*3 0.9 C 19.3 km/h
131 31-01-2022 10:50:00 4.8 C 6.17 g/m*3 0.71 C 20.9 km/h
132 31-01-2022 10:55:00 4.8 C 6.1 g/m*3 0.9 C 19.3 km/h
133 31-01-2022 11:00:00 4.8 C 6.1 g/m*3 0.71 C 20.9 km/h
134 31-01-2022 11:05:00 4.8 C 6.17 g/m*3 0.9 C 19.3 km/h
135 31-01-2022 11:10:00 4.8 C 6.17 g/m*3 0.9 C 19.3 km/h
136 31-01-2022 11:15:00 4.8 C 6.17 g/m*3 0.71 C 20.9 km/h
137 31-01-2022 11:20:00 4.8 C 6.17 g/m*3 0.52 C 22.5 km/h
138 31-01-2022 11:25:00 4.8 C 6.1 g/m*3 1.34 C 16.1 km/h
139 31-01-2022 11:30:00 4.9 C 6.14 g/m*3 0.48 C 24.1 km/h
140 31-01-2022 11:35:00 4.9 C 6.14 g/m*3 0.65 C 22.5 km/h
141 31-01-2022 11:40:00 4.9 C 6.08 g/m*3 1.24 C 17.7 km/h
142 31-01-2022 11:45:00 5 C 6.12 g/m*3 1.15 C 19.3 km/h
143 31-01-2022 11:50:00 5.1 C 6.16 g/m*3 0.58 C 25.7 km/h
144 31-01-2022 11:55:00 5.2 C 6.13 g/m*3 1.21 C 20.9 km/h
145 31-01-2022 12:00:00 5.2 C 6.13 g/m*3 0.86 C 24.1 km/h
146 31-01-2022 12:05:00 5.3 C 6.1 g/m*3 1.16 C 22.5 km/h
147 31-01-2022 12:10:00 5.3 C 6.1 g/m*3 0.53 C 29 km/h
148 31-01-2022 12:15:00 5.3 C 6.17 g/m*3 1.16 C 22.5 km/h
149 31-01-2022 12:20:00 5.3 C 6.17 g/m*3 1.53 C 19.3 km/h
150 31-01-2022 12:25:00 5.3 C 6.1 g/m*3 0.67 C 27.4 km/h
Sensor: Nr:Datum:Temp:Abs-Feuchte:Windchill:Wind:
Aussen-T/F 151 31-01-2022 12:30:00 5.4 C 6.07 g/m*3 1.12 C 24.1 km/h
152 31-01-2022 12:35:00 5.4 C 6.07 g/m*3 0.66 C 29 km/h
153 31-01-2022 12:40:00 5.4 C 6.07 g/m*3 0.8 C 27.4 km/h
154 31-01-2022 12:45:00 5.4 C 6.07 g/m*3 0.8 C 27.4 km/h
155 31-01-2022 12:50:00 5.4 C 6.07 g/m*3 1.29 C 22.5 km/h
156 31-01-2022 12:55:00 5.3 C 6.1 g/m*3 0.67 C 27.4 km/h
157 31-01-2022 13:00:00 5.3 C 6.1 g/m*3 0.99 C 24.1 km/h
158 31-01-2022 13:05:00 5.3 C 6.1 g/m*3 0.13 C 33.8 km/h
159 31-01-2022 13:10:00 5.3 C 6.1 g/m*3 0.67 C 27.4 km/h
160 31-01-2022 13:15:00 5.3 C 6.1 g/m*3 0.67 C 27.4 km/h
161 31-01-2022 13:20:00 5.3 C 6.03 g/m*3 0.67 C 27.4 km/h
162 31-01-2022 13:25:00 5.3 C 6.1 g/m*3 1.34 C 20.9 km/h
163 31-01-2022 13:30:00 5.3 C 6.03 g/m*3 0.99 C 24.1 km/h
164 31-01-2022 13:35:00 5.3 C 6.1 g/m*3 0.26 C 32.2 km/h
165 31-01-2022 13:40:00 5.4 C 6.07 g/m*3 0.96 C 25.7 km/h
166 31-01-2022 13:45:00 5.4 C 6.07 g/m*3 0.96 C 25.7 km/h
167 31-01-2022 13:50:00 5.3 C 6.03 g/m*3 1.16 C 22.5 km/h
168 31-01-2022 13:55:00 5.3 C 6.03 g/m*3 0.67 C 27.4 km/h
169 31-01-2022 14:00:00 5.3 C 6.1 g/m*3 1.34 C 20.9 km/h
170 31-01-2022 14:05:00 5.3 C 6.1 g/m*3 1.34 C 20.9 km/h
171 31-01-2022 14:10:00 5.4 C 6.14 g/m*3 1.86 C 17.7 km/h
172 31-01-2022 14:15:00 5.4 C 6.14 g/m*3 0.96 C 25.7 km/h
173 31-01-2022 14:20:00 5.4 C 6.07 g/m*3 1.47 C 20.9 km/h
174 31-01-2022 14:25:00 5.4 C 6.14 g/m*3 1.47 C 20.9 km/h
175 31-01-2022 14:30:00 5.3 C 6.1 g/m*3 1.34 C 20.9 km/h
Sensor: Nr:Datum:Temp:Abs-Feuchte:Windchill:Wind:
Aussen-T/F 176 31-01-2022 14:35:00 5.3 C 6.1 g/m*3 1.16 C 22.5 km/h
177 31-01-2022 14:40:00 5.3 C 6.17 g/m*3 0.99 C 24.1 km/h
178 31-01-2022 14:45:00 5.3 C 6.17 g/m*3 1.74 C 17.7 km/h
179 31-01-2022 14:50:00 5.3 C 6.17 g/m*3 2.2 C 14.5 km/h
180 31-01-2022 14:55:00 5.3 C 6.1 g/m*3 1.53 C 19.3 km/h
181 31-01-2022 15:00:00 5.3 C 6.1 g/m*3 0.99 C 24.1 km/h
182 31-01-2022 15:05:00 5.3 C 6.1 g/m*3 1.34 C 20.9 km/h
183 31-01-2022 15:10:00 5.4 C 6.07 g/m*3 1.12 C 24.1 km/h
184 31-01-2022 15:15:00 5.4 C 6.07 g/m*3 1.66 C 19.3 km/h
185 31-01-2022 15:20:00 5.4 C 6.07 g/m*3 1.66 C 19.3 km/h
186 31-01-2022 15:25:00 5.4 C 6.07 g/m*3 0.96 C 25.7 km/h
187 31-01-2022 15:30:00 5.3 C 6.03 g/m*3 0.67 C 27.4 km/h
188 31-01-2022 15:35:00 5.3 C 6.03 g/m*3 0.53 C 29 km/h
189 31-01-2022 15:40:00 5.3 C 6.03 g/m*3 0.83 C 25.7 km/h
190 31-01-2022 15:45:00 5.3 C 6.03 g/m*3 0.99 C 24.1 km/h
191 31-01-2022 15:50:00 5.3 C 6.03 g/m*3 1.34 C 20.9 km/h
192 31-01-2022 15:55:00 5.3 C 6.03 g/m*3 1.16 C 22.5 km/h
193 31-01-2022 16:00:00 5.3 C 5.96 g/m*3 1.34 C 20.9 km/h
194 31-01-2022 16:05:00 5.3 C 5.96 g/m*3 1.74 C 17.7 km/h
195 31-01-2022 16:10:00 5.3 C 5.96 g/m*3 0.99 C 24.1 km/h
196 31-01-2022 16:15:00 5.3 C 5.96 g/m*3 1.53 C 19.3 km/h
197 31-01-2022 16:20:00 5.3 C 6.03 g/m*3 0.99 C 24.1 km/h
198 31-01-2022 16:25:00 5.3 C 6.03 g/m*3 1.74 C 17.7 km/h
199 31-01-2022 16:30:00 5.2 C 5.99 g/m*3 0.4 C 29 km/h
200 31-01-2022 16:35:00 5.2 C 5.99 g/m*3 1.4 C 19.3 km/h
Sensor: Nr:Datum:Temp:Abs-Feuchte:Windchill:Wind:
Aussen-T/F 201 31-01-2022 16:40:00 5.2 C 5.99 g/m*3 0.86 C 24.1 km/h
202 31-01-2022 16:45:00 5.2 C 6.06 g/m*3 1.4 C 19.3 km/h
203 31-01-2022 16:50:00 5.1 C 6.02 g/m*3 1.28 C 19.3 km/h
204 31-01-2022 16:55:00 5.1 C 6.02 g/m*3 1.28 C 19.3 km/h
205 31-01-2022 17:00:00 5.1 C 6.02 g/m*3 1.49 C 17.7 km/h
206 31-01-2022 17:05:00 5.1 C 5.95 g/m*3 0.27 C 29 km/h
207 31-01-2022 17:10:00 5.1 C 6.02 g/m*3 0.91 C 22.5 km/h
208 31-01-2022 17:15:00 5.2 C 5.99 g/m*3 0.54 C 27.4 km/h
209 31-01-2022 17:20:00 5.3 C 6.03 g/m*3 1.74 C 17.7 km/h
210 31-01-2022 17:25:00 5.3 C 5.96 g/m*3 0.67 C 27.4 km/h
211 31-01-2022 17:30:00 5.3 C 5.96 g/m*3 1.53 C 19.3 km/h
212 31-01-2022 17:35:00 5.4 C 6 g/m*3 2.08 C 16.1 km/h
213 31-01-2022 17:40:00 5.4 C 6 g/m*3 1.66 C 19.3 km/h
214 31-01-2022 17:45:00 5.4 C 6 g/m*3 1.86 C 17.7 km/h
215 31-01-2022 17:50:00 5.4 C 6 g/m*3 0.52 C 30.6 km/h
216 31-01-2022 17:55:00 5.4 C 5.93 g/m*3 1.12 C 24.1 km/h
217 31-01-2022 18:00:00 5.4 C 6 g/m*3 1.47 C 20.9 km/h
218 31-01-2022 18:05:00 5.4 C 6 g/m*3 0.8 C 27.4 km/h
219 31-01-2022 18:10:00 5.3 C 5.96 g/m*3 1.74 C 17.7 km/h
220 31-01-2022 18:15:00 5.3 C 5.96 g/m*3 1.53 C 19.3 km/h
221 31-01-2022 18:20:00 5.3 C 5.96 g/m*3 0.83 C 25.7 km/h
222 31-01-2022 18:25:00 5.3 C 5.96 g/m*3 1.74 C 17.7 km/h
223 31-01-2022 18:30:00 5.3 C 5.96 g/m*3 1.96 C 16.1 km/h
224 31-01-2022 18:35:00 5.3 C 5.96 g/m*3 2.2 C 14.5 km/h
225 31-01-2022 18:40:00 5.3 C 5.96 g/m*3 2.2 C 14.5 km/h
Sensor: Nr:Datum:Temp:Abs-Feuchte:Windchill:Wind:
Aussen-T/F 226 31-01-2022 18:45:00 5.3 C 5.96 g/m*3 1.74 C 17.7 km/h
227 31-01-2022 18:50:00 5.3 C 5.96 g/m*3 1.96 C 16.1 km/h
228 31-01-2022 18:55:00 5.3 C 5.96 g/m*3 1.53 C 19.3 km/h
229 31-01-2022 19:00:00 5.3 C 5.96 g/m*3 1.34 C 20.9 km/h
230 31-01-2022 19:05:00 5.3 C 6.03 g/m*3 1.53 C 19.3 km/h
231 31-01-2022 19:10:00 5.2 C 5.99 g/m*3 1.4 C 19.3 km/h
232 31-01-2022 19:15:00 5.1 C 6.02 g/m*3 1.09 C 20.9 km/h
233 31-01-2022 19:20:00 5 C 5.98 g/m*3 1.15 C 19.3 km/h
234 31-01-2022 19:25:00 5 C 5.98 g/m*3 1.36 C 17.7 km/h
235 31-01-2022 19:30:00 4.9 C 6.01 g/m*3 1.7 C 14.5 km/h
236 31-01-2022 19:35:00 4.9 C 6.01 g/m*3 0.65 C 22.5 km/h
237 31-01-2022 19:40:00 4.9 C 6.01 g/m*3 0.65 C 22.5 km/h
238 31-01-2022 19:45:00 4.9 C 6.08 g/m*3 2.27 C 11.3 km/h
239 31-01-2022 19:50:00 4.9 C 6.08 g/m*3 1.46 C 16.1 km/h
240 31-01-2022 19:55:00 4.9 C 6.08 g/m*3 1.03 C 19.3 km/h
241 31-01-2022 20:00:00 4.9 C 6.14 g/m*3 1.03 C 19.3 km/h
242 31-01-2022 20:05:00 4.9 C 6.14 g/m*3 0.48 C 24.1 km/h
243 31-01-2022 20:10:00 5 C 6.18 g/m*3 0.78 C 22.5 km/h
244 31-01-2022 20:15:00 5 C 6.18 g/m*3 0.78 C 22.5 km/h
245 31-01-2022 20:20:00 5.1 C 6.29 g/m*3 1.49 C 17.7 km/h
246 31-01-2022 20:25:00 5.1 C 6.29 g/m*3 1.71 C 16.1 km/h
247 31-01-2022 20:30:00 5.2 C 6.33 g/m*3 2.63 C 11.3 km/h
248 31-01-2022 20:35:00 5.2 C 6.33 g/m*3 1.03 C 22.5 km/h
249 31-01-2022 20:40:00 5.2 C 6.33 g/m*3 1.03 C 22.5 km/h
250 31-01-2022 20:45:00 5.3 C 6.31 g/m*3 0.67 C 27.4 km/h
Sensor: Nr:Datum:Temp:Abs-Feuchte:Windchill:Wind:
Aussen-T/F 251 31-01-2022 20:50:00 5.3 C 6.31 g/m*3 1.53 C 19.3 km/h
252 31-01-2022 20:55:00 5.4 C 6.35 g/m*3 1.29 C 22.5 km/h
253 31-01-2022 21:00:00 5.5 C 6.32 g/m*3 2.44 C 14.5 km/h
254 31-01-2022 21:05:00 5.5 C 6.32 g/m*3 1.78 C 19.3 km/h
255 31-01-2022 21:10:00 5.5 C 6.32 g/m*3 0.52 C 32.2 km/h
256 31-01-2022 21:15:00 5.6 C 6.29 g/m*3 2.33 C 16.1 km/h
257 31-01-2022 21:20:00 5.6 C 6.29 g/m*3 1.22 C 25.7 km/h
258 31-01-2022 21:25:00 5.6 C 6.22 g/m*3 1.38 C 24.1 km/h
259 31-01-2022 21:30:00 5.6 C 6.22 g/m*3 2.11 C 17.7 km/h
260 31-01-2022 21:35:00 5.6 C 6.22 g/m*3 2.11 C 17.7 km/h
261 31-01-2022 21:40:00 5.5 C 6.18 g/m*3 1.42 C 22.5 km/h
262 31-01-2022 21:45:00 5.6 C 6.22 g/m*3 1.22 C 25.7 km/h
263 31-01-2022 21:50:00 5.6 C 6.22 g/m*3 1.22 C 25.7 km/h
264 31-01-2022 21:55:00 5.5 C 6.18 g/m*3 1.42 C 22.5 km/h
265 31-01-2022 22:00:00 5.4 C 6.21 g/m*3 2.58 C 12.9 km/h
266 31-01-2022 22:05:00 5.4 C 6.21 g/m*3 1.86 C 17.7 km/h
267 31-01-2022 22:10:00 5.3 C 6.17 g/m*3 2.2 C 14.5 km/h
268 31-01-2022 22:15:00 5.2 C 6.2 g/m*3 1.61 C 17.7 km/h
269 31-01-2022 22:20:00 5.2 C 6.2 g/m*3 1.4 C 19.3 km/h
270 31-01-2022 22:25:00 5.1 C 6.16 g/m*3 1.09 C 20.9 km/h
271 31-01-2022 22:30:00 5.1 C 6.16 g/m*3 1.49 C 17.7 km/h
272 31-01-2022 22:35:00 5 C 6.18 g/m*3 0.96 C 20.9 km/h
273 31-01-2022 22:40:00 5 C 6.18 g/m*3 0.61 C 24.1 km/h
274 31-01-2022 22:45:00 4.9 C 6.14 g/m*3 0.65 C 22.5 km/h
275 31-01-2022 22:50:00 4.9 C 6.14 g/m*3 1.24 C 17.7 km/h
Sensor: Nr:Datum:Temp:Abs-Feuchte:Windchill:Wind:
Aussen-T/F 276 31-01-2022 22:55:00 4.9 C 6.14 g/m*3 0.32 C 25.7 km/h
277 31-01-2022 23:00:00 4.8 C 6.1 g/m*3 1.58 C 14.5 km/h
278 31-01-2022 23:05:00 4.8 C 6.1 g/m*3 2.87 C 8.1 km/h
279 31-01-2022 23:10:00 4.8 C 6.1 g/m*3 1.34 C 16.1 km/h
280 31-01-2022 23:15:00 4.8 C 6.1 g/m*3 2.49 C 9.7 km/h
281 31-01-2022 23:20:00 4.7 C 6.06 g/m*3 0.99 C 17.7 km/h
282 31-01-2022 23:25:00 4.7 C 6.06 g/m*3 1.73 C 12.9 km/h
283 31-01-2022 23:30:00 4.7 C 6.06 g/m*3 2.03 C 11.3 km/h
284 31-01-2022 23:35:00 4.7 C 6.06 g/m*3 1.21 C 16.1 km/h
285 31-01-2022 23:40:00 4.7 C 6.06 g/m*3 1.73 C 12.9 km/h
286 31-01-2022 23:45:00 4.6 C 6.02 g/m*3 0.86 C 17.7 km/h
287 31-01-2022 23:50:00 4.6 C 6.02 g/m*3 1.61 C 12.9 km/h
288 31-01-2022 23:55:00 4.6 C 6.02 g/m*3 1.91 C 11.3 km/h

Legende:
   Min
   Max


Maximal/Minimal-Werte vom 31.01.2022 - 31.01.2022

Sensor Min Max Avg
Temp
(Aussen-T/F)
1.2 °C
31-01-2022  00:00:00
5.6 °C
31-01-2022  21:15:00
4.35 °C
Abs-Feuchte
(Aussen-T/F)
4.74 g/m*3
31-01-2022  00:00:00
6.35 g/m*3
31-01-2022  20:55:00
5.8 g/m*3
Windchill
(Aussen-T/F)
-1.19 C
31-01-2022  06:25:00
3.5 C
31-01-2022  03:45:00
1.06 C

Die Daten stammen von einer Davis Vantage Pro 2 Wetter-Station und werden unter Linux mit der Software wview2wettercgi und aufbereitet. Alle Angaben erfolgen ohne Gewähr für ihre Vollständigkeit oder Richtigkeit.
Kontakt: Rainer Krienke krienke@uni-koblenz.de . Meine Webseiten an der Uni Koblenz oder privat.
Version: $Revision: 0.78 $